Latest Weather Observations for Hindmarsh Island

IDS60801

Issued at 4:01 am CST Monday 24 July 2017 (issued every 30 minutes, with the page automatically refreshed every 10 minutes)

About weather observations | Map of weather stations | Latest weather observations for SA | Other Formats
Station Details ID: 023894 Name: HINDMARSH ISLAND AWS Lat: -35.52 Lon: 138.82 Height: 11.0 m
Data from the previous 72 hours. | See also: Recent months at Hindmarsh Island
Date/Time
CST
Temp
°C
App
Temp
°C
Dew
Point
°C
Rel
Hum
%
Delta-T
°C
Wind Press
QNH
hPa
Press
MSL
hPa
Rain since
9am
mm
Dir  Spd
km/h
Gust
km/h
Spd
kts
Gust
kts
24/04:00am 10.9 8.1 8.5 85 1.2 NNW 13 19 7 10 1019.3 1019.3 1.0
24/03:30am 10.2 6.9 8.0 86 1.1 NW 15 20 8 11 1019.5 1019.5 0.8
24/03:00am 10.1 7.1 7.9 86 1.1 NNW 13 15 7 8 1019.6 1019.6 0.8
24/02:30am 10.3 7.4 8.1 86 1.1 NNW 13 17 7 9 1019.6 1019.6 0.8
24/02:00am 10.1 7.5 7.7 85 1.2 N 11 13 6 7 1019.5 1019.5 0.8
24/01:30am 10.3 7.7 7.9 85 1.2 NNW 11 13 6 7 1019.6 1019.6 0.8
24/01:00am 10.1 7.2 8.0 87 1.0 NNW 13 17 7 9 1019.7 1019.7 0.8
24/12:30am 9.7 6.6 7.3 85 1.1 NNW 13 15 7 8 1019.8 1019.8 0.8
24/12:00am 10.0 7.0 7.6 85 1.1 WNW 13 15 7 8 1019.7 1019.7 0.8
 
Date/Time
CST
Temp
°C
App
Temp
°C
Dew
Point
°C
Rel
Hum
%
Delta-T
°C
Wind Press
QNH
hPa
Press
MSL
hPa
Rain since
9am
mm
Dir  Spd
km/h
Gust
km/h
Spd
kts
Gust
kts
23/11:30pm 9.9 7.2 7.3 84 1.2 WNW 11 13 6 7 1019.8 1019.8 0.8
23/11:00pm 10.1 7.0 7.3 83 1.3 NW 13 15 7 8 1019.9 1019.9 0.8
23/10:30pm 10.0 6.9 7.3 83 1.3 NNW 13 17 7 9 1019.8 1019.8 0.8
23/10:00pm 10.6 7.2 7.7 82 1.4 NNW 15 17 8 9 1019.5 1019.5 0.8
23/09:30pm 10.8 7.8 7.7 81 1.5 NW 13 15 7 8 1019.4 1019.4 0.8
23/09:00pm 11.2 9.1 8.1 81 1.5 NW 9 13 5 7 1019.2 1019.2 0.8
23/08:30pm 11.7 9.2 8.4 80 1.6 WNW 11 13 6 7 1018.9 1018.9 0.8
23/08:00pm 12.0 8.6 9.0 82 1.5 WNW 17 20 9 11 1018.7 1018.7 0.8
23/07:30pm 12.0 9.3 9.0 82 1.5 WNW 13 17 7 9 1018.4 1018.4 0.8
23/07:00pm 12.7 9.3 9.2 79 1.8 W 17 22 9 12 1018.0 1018.0 0.8
23/06:30pm 12.8 9.6 9.8 82 1.5 WSW 17 24 9 13 1018.0 1018.0 0.8
23/06:00pm 12.7 7.5 10.4 86 1.2 SW 28 39 15 21 1017.7 1017.7 0.6
23/05:50pm 13.4 9.7 10.2 81 1.7 WSW 20 39 11 21 1017.5 1017.5 0.6
23/05:30pm 13.7 11.7 10.3 80 1.8 W 11 17 6 9 1017.3 1017.3 0.6
23/05:00pm 13.6 11.3 10.6 82 1.6 W 13 17 7 9 1017.3 1017.3 0.6
23/04:30pm 13.6 10.6 10.6 82 1.6 WSW 17 22 9 12 1017.1 1017.1 0.6
23/04:00pm 13.2 9.7 10.2 82 1.6 WSW 19 24 10 13 1016.8 1016.8 0.6
23/03:30pm 13.3 6.7 10.1 81 1.6 SW 35 48 19 26 1016.6 1016.6 0.4
23/03:27pm 14.0 8.1 10.6 80 1.8 SW 32 48 17 26 1016.5 1016.5 0.4
23/03:00pm 15.7 12.2 10.9 73 2.6 SW 20 30 11 16 1016.4 1016.4 0.4
23/02:30pm 14.7 9.2 9.3 70 2.8 SW 28 41 15 22 1016.2 1016.2 0.4
23/02:00pm 16.6 11.0 10.2 66 3.4 W 30 44 16 24 1016.1 1016.1 0.4
23/01:30pm 15.7 9.9 9.6 67 3.2 W 30 41 16 22 1015.9 1015.9 0.4
23/01:00pm 15.2 10.2 9.6 69 2.9 W 26 41 14 22 1016.1 1016.1 0.4
23/12:30pm 15.4 10.1 9.7 69 3.0 W 28 39 15 21 1016.3 1016.3 0.4
23/12:00pm 14.9 10.0 9.9 72 2.6 WNW 26 35 14 19 1016.6 1016.6 0.4
23/11:30am 14.7 9.2 9.3 70 2.8 WNW 28 41 15 22 1016.8 1016.8 0.4
23/11:00am 14.1 9.7 10.3 78 2.0 WNW 24 32 13 17 1017.0 1017.0 0.4
23/10:30am 13.1 7.0 10.3 83 1.4 W 33 50 18 27 1016.9 1016.9 0.4
23/10:00am 15.7 11.0 9.1 65 3.4 W 24 33 13 18 1016.6 1016.6 0.0
23/09:30am 15.2 10.1 9.1 67 3.1 WNW 26 39 14 21 1016.1 1016.1 0.0
23/09:00am 15.1 11.1 9.2 68 3.0 WNW 20 35 11 19 1016.0 1016.0 0.0
23/08:30am 14.1 9.0 9.1 72 2.5 WNW 26 35 14 19 1015.7 1015.7 0.0
23/08:00am 14.0 9.0 9.6 75 2.3 WNW 26 33 14 18 1015.3 1015.3 0.0
23/07:30am 13.3 8.6 9.2 76 2.1 NW 24 33 13 18 1014.9 1014.9 0.0
23/07:00am 13.1 8.5 8.2 72 2.4 WNW 22 28 12 15 1014.9 1014.9 0.0
23/06:30am 13.1 8.6 8.6 74 2.2 NW 22 30 12 16 1014.7 1014.7 0.0
23/06:00am 12.9 8.9 9.0 77 2.0 NW 20 26 11 14 1014.4 1014.4 0.0
23/05:30am 12.8 9.4 9.1 78 1.9 NW 17 20 9 11 1014.3 1014.3 0.0
23/05:00am 13.3 9.6 9.4 77 2.0 NW 19 24 10 13 1014.2 1014.2 0.0
23/04:30am 13.7 9.1 8.1 69 2.8 NW 22 28 12 15 1014.0 1014.0 0.0
23/04:00am 13.6 11.0 9.5 76 2.1 NW 13 19 7 10 1014.1 1014.1 0.0
23/03:30am 13.0 10.4 9.4 79 1.8 WNW 13 17 7 9 1014.0 1014.0 0.0
23/03:00am 13.3 10.5 9.9 80 1.7 NW 15 19 8 10 1014.0 1014.0 0.0
23/02:30am 13.4 11.0 10.2 81 1.7 NW 13 17 7 9 1014.1 1014.1 0.0
23/02:00am 14.0 10.6 10.4 79 1.9 WNW 19 24 10 13 1014.1 1014.1 0.0
23/01:30am 14.3 9.8 10.1 76 2.2 W 24 32 13 17 1014.1 1014.1 0.0
23/01:00am 13.9 10.7 10.1 78 2.0 WNW 17 28 9 15 1014.0 1014.0 0.0
23/12:30am 13.7 10.4 9.6 76 2.1 WNW 17 20 9 11 1014.0 1014.0 0.0
23/12:00am 13.7 11.1 9.4 75 2.2 NNW 13 20 7 11 1014.0 1014.0 0.0
 
Date/Time
CST
Temp
°C
App
Temp
°C
Dew
Point
°C
Rel
Hum
%
Delta-T
°C
Wind Press
QNH
hPa
Press
MSL
hPa
Rain since
9am
mm
Dir  Spd
km/h
Gust
km/h
Spd
kts
Gust
kts
22/11:30pm 13.4 10.8 9.5 77 2.0 NW 13 19 7 10 1014.1 1014.1 0.0
22/11:00pm 13.1 11.2 9.0 76 2.1 WNW 9 13 5 7 1014.1 1014.1 0.0
22/10:30pm 12.6 9.8 7.1 69 2.7 NW 11 15 6 8 1014.0 1014.0 0.0
22/10:00pm 13.1 10.0 5.5 60 3.6 N 11 15 6 8 1013.8 1013.8 0.0
22/09:30pm 13.7 10.6 5.6 58 3.8 NW 11 17 6 9 1014.0 1014.0 0.0
22/09:00pm 13.1 9.4 4.5 56 3.9 NNW 13 15 7 8 1013.9 1013.9 0.0
22/08:30pm 12.2 8.9 4.4 59 3.5 WNW 11 15 6 8 1013.9 1013.9 0.0
22/08:00pm 14.0 9.4 3.8 50 4.6 N 17 20 9 11 1013.6 1013.6 0.0
22/07:30pm 14.5 9.3 3.6 48 5.0 N 20 26 11 14 1013.3 1013.3 0.0
22/07:00pm 14.3 9.3 3.5 48 4.9 N 19 22 10 12 1013.2 1013.2 0.0
22/06:30pm 15.3 9.7 3.5 45 5.4 N 22 28 12 15 1013.1 1013.1 0.0
22/06:00pm 15.5 9.9 3.3 44 5.6 NNW 22 30 12 16 1013.0 1013.0 0.0
22/05:30pm 15.8 9.0 3.3 43 5.7 NNW 28 35 15 19 1012.7 1012.7 0.0
22/05:00pm 16.3 9.6 3.4 42 5.9 NNW 28 37 15 20 1012.6 1012.6 0.0
22/04:30pm 16.8 10.5 3.5 41 6.1 NNW 26 37 14 20 1012.6 1012.6 0.0
22/04:00pm 17.1 10.0 3.4 40 6.3 NW 30 41 16 22 1012.4 1012.4 0.0
22/03:30pm 17.4 10.2 3.0 38 6.6 NW 30 43 16 23 1012.3 1012.3 0.0
22/03:00pm 17.3 9.1 2.9 38 6.6 NW 35 48 19 26 1012.3 1012.3 0.0
22/02:54pm 17.5 9.7 3.0 38 6.7 NW 33 52 18 28 1012.4 1012.4 0.0
22/02:30pm 17.2 9.0 2.8 38 6.6 NW 35 50 19 27 1012.5 1012.5 0.0
22/02:00pm 17.3 9.6 3.2 39 6.5 NW 33 44 18 24 1012.9 1012.9 0.0
22/01:44pm 17.4 9.8 3.0 38 6.6 NW 32 50 17 27 1013.1 1013.1 0.0
22/01:30pm 17.2 9.4 3.1 39 6.5 NW 33 46 18 25 1013.3 1013.3 0.0
22/01:18pm 17.3 8.8 3.2 39 6.5 NW 37 56 20 30 1013.5 1013.5 0.0
22/01:00pm 17.1 8.1 2.7 38 6.6 NW 39 54 21 29 1013.8 1013.8 0.0
22/12:33pm 17.1 8.1 2.3 37 6.7 NW 39 59 21 32 1014.4 1014.4 0.0
22/12:30pm 17.1 8.2 3.1 39 6.4 NW 39 56 21 30 1014.4 1014.4 0.0
22/12:11pm 16.9 7.8 2.1 37 6.6 NNW 39 57 21 31 1014.7 1014.7 0.0
22/12:00pm 16.7 7.4 2.7 39 6.3 NW 41 54 22 29 1015.0 1015.0 0.0
22/11:44am 16.7 9.0 2.3 38 6.5 NNW 32 50 17 27 1015.3 1015.3 0.0
22/11:30am 16.6 9.0 3.0 40 6.2 NW 32 44 17 24 1015.7 1015.7 0.0
22/11:16am 16.8 9.4 2.0 37 6.6 NNW 30 50 16 27 1015.9 1015.9 0.0
22/11:00am 16.7 10.1 2.3 38 6.5 NNW 26 35 14 19 1016.0 1016.0 0.0
22/10:30am 16.3 9.3 2.0 38 6.4 NNW 28 43 15 23 1016.3 1016.3 0.0
22/10:00am 15.8 8.5 2.6 41 5.9 NNW 30 46 16 25 1016.4 1016.4 0.0
22/09:57am 15.7 8.3 1.8 39 6.1 NNW 30 46 16 25 1016.3 1016.3 0.0
22/09:30am 14.3 9.0 1.9 43 5.4 NW 19 28 10 15 1016.7 1016.7 0.0
22/09:00am 13.7 8.8 2.0 45 5.1 N 17 30 9 16 1016.5 1016.5 0.0
22/08:30am 13.6 7.3 1.6 44 5.2 NNW 24 33 13 18 1016.4 1016.4 0.0
22/08:00am 13.5 8.9 1.5 44 5.2 NNW 15 26 8 14 1016.6 1016.6 0.0
22/07:30am 13.9 8.9 1.2 42 5.4 NNW 17 22 9 12 1016.7 1016.7 0.0
22/07:00am 14.1 10.2 1.1 41 5.6 WNW 11 20 6 11 1016.8 1016.8 0.0
22/06:30am 13.9 10.1 1.5 43 5.3 WSW 11 17 6 9 1016.7 1016.7 0.0
22/06:00am 13.8 10.0 1.5 43 5.3 WNW 11 17 6 9 1016.3 1016.3 0.0
22/05:30am 14.6 9.2 1.2 40 5.8 NNW 19 28 10 15 1016.0 1016.0 0.0
22/05:00am 14.6 9.2 1.5 41 5.7 NNW 19 30 10 16 1016.2 1016.2 0.0
22/04:30am 14.7 8.4 1.6 41 5.7 NNW 24 37 13 20 1016.2 1016.2 0.0
22/04:00am 14.7 8.5 1.9 42 5.6 NNW 24 35 13 19 1016.3 1016.3 0.0
22/03:40am 14.7 7.6 1.6 41 5.7 NNW 28 46 15 25 1016.2 1016.2 0.0
22/03:30am 14.9 7.1 1.4 40 5.9 NNW 32 43 17 23 1016.1 1016.1 0.0
22/03:00am 14.8 7.7 1.3 40 5.8 NNW 28 43 15 23 1016.4 1016.4 0.0
22/02:30am 15.1 7.2 1.3 39 6.0 NNW 32 48 17 26 1016.7 1016.7 0.0
22/02:10am 14.9 9.4 2.1 42 5.6 NNW 20 41 11 22 1016.7 1016.7 0.0
22/02:00am 13.0 9.8 2.8 50 4.5 NW 9 17 5 9 1016.8 1016.8 0.0
22/01:30am 10.2 7.3 4.6 68 2.5 N 9 13 5 7 1017.0 1017.0 0.0
22/01:00am 9.3 5.6 4.5 72 2.1 N 13 17 7 9 1016.9 1016.9 0.0
22/12:30am 9.1 4.2 4.3 72 2.1 NNE 19 20 10 11 1016.8 1016.8 0.0
22/12:00am 9.2 4.7 4.2 71 2.2 NNE 17 20 9 11 1016.8 1016.8 0.0
 
Date/Time
CST
Temp
°C
App
Temp
°C
Dew
Point
°C
Rel
Hum
%
Delta-T
°C
Wind Press
QNH
hPa
Press
MSL
hPa
Rain since
9am
mm
Dir  Spd
km/h
Gust
km/h
Spd
kts
Gust
kts
21/11:30pm 9.5 4.4 4.3 70 2.3 NE 20 28 11 15 1016.6 1016.6 0.0
21/11:00pm 9.9 4.9 4.5 69 2.4 NNE 20 26 11 14 1016.7 1016.7 0.0
21/10:30pm 11.2 4.6 4.2 62 3.1 N 28 35 15 19 1016.9 1016.9 0.0
21/10:00pm 10.6 4.5 4.9 68 2.6 NNE 26 35 14 19 1016.9 1016.9 0.0
21/09:30pm 11.1 4.6 4.8 65 2.8 NNE 28 35 15 19 1017.3 1017.3 0.0
21/09:00pm 10.8 5.8 4.5 65 2.8 NNE 20 30 11 16 1017.8 1017.8 0.0
21/08:30pm 10.9 5.6 4.8 66 2.8 NNE 22 26 12 14 1017.9 1017.9 0.0
21/08:00pm 10.5 6.9 4.9 68 2.5 NE 13 19 7 10 1018.0 1018.0 0.0
21/07:30pm 11.4 6.6 4.8 64 3.0 NE 19 24 10 13 1017.9 1017.9 0.0
21/07:00pm 12.8 8.4 4.8 58 3.7 NNE 17 24 9 13 1017.8 1017.8 0.0
21/06:30pm 12.3 7.5 4.8 60 3.4 NE 19 20 10 11 1018.0 1018.0 0.0
21/06:00pm 13.3 9.0 5.2 58 3.8 NNE 17 20 9 11 1018.1 1018.1 0.0
21/05:30pm 14.3 9.9 4.6 52 4.5 NNE 17 20 9 11 1018.0 1018.0 0.0
21/05:00pm 15.7 11.2 4.4 47 5.3 NNE 17 24 9 13 1018.0 1018.0 0.0
21/04:30pm 16.5 11.9 3.9 43 5.8 N 17 32 9 17 1017.9 1017.9 0.0
21/04:00pm 17.2 13.0 3.8 41 6.2 N 15 20 8 11 1017.7 1017.7 0.0
21/03:30pm 17.5 12.1 2.7 37 6.7 NNW 20 28 11 15 1017.8 1017.8 0.0
21/03:00pm 17.7 12.0 2.8 37 6.8 NNW 22 32 12 17 1017.8 1017.8 0.0
21/02:30pm 17.6 12.3 2.8 37 6.8 N 20 33 11 18 1017.8 1017.8 0.0
21/02:00pm 17.4 11.4 3.3 39 6.5 NNW 24 35 13 19 1018.1 1018.1 0.0
21/01:30pm 17.3 10.8 2.9 38 6.6 NNW 26 37 14 20 1018.2 1018.2 0.0
21/01:00pm 17.1 11.1 3.1 39 6.4 NNW 24 32 13 17 1018.7 1018.7 0.0
21/12:30pm 16.6 10.5 2.6 39 6.3 NNW 24 33 13 18 1019.1 1019.1 0.0
21/12:00pm 16.2 11.5 6.1 51 4.9 N 20 24 11 13 1019.7 1019.7 0.0
21/11:30am 15.2 10.8 7.3 59 3.9 NNE 20 26 11 14 1020.2 1020.2 0.0
21/11:00am 13.4 8.9 6.0 61 3.5 NNE 19 24 10 13 1020.9 1020.9 0.0
21/10:30am 11.8 7.2 5.7 66 2.8 NNE 19 22 10 12 1021.3 1021.3 0.0
21/10:00am 10.4 5.6 5.4 71 2.3 NNE 20 26 11 14 1021.3 1021.3 0.0
21/09:30am 9.0 4.0 4.8 75 1.9 NNE 20 26 11 14 1021.5 1021.5 0.0
21/09:00am 7.5 2.3 3.7 77 1.6 NNE 20 24 11 13 1021.3 1021.3 0.0
21/08:30am 6.8 1.6 3.4 79 1.4 NNE 20 26 11 14 1021.2 1021.2 0.0
21/08:00am 5.7 0.3 2.7 81 1.2 N 20 26 11 14 1021.1 1021.1 0.0
21/07:30am 5.4 0.1 2.9 84 1.0 NNE 20 24 11 13 1020.9 1020.9 0.0
21/07:00am 5.4 0.1 2.8 83 1.1 N 20 28 11 15 1021.0 1021.0 0.0
21/06:30am 5.2 0.4 2.4 82 1.1 NNE 17 20 9 11 1020.7 1020.7 0.0
21/06:00am 5.2 0.0 2.7 84 1.0 NNE 19 20 10 11 1020.6 1020.6 0.0
21/05:30am 4.8 0.4 2.7 86 0.8 NNE 15 17 8 9 1020.5 1020.5 0.0
21/05:00am 4.2 -0.3 2.1 86 0.8 NE 15 17 8 9 1020.5 1020.5 0.0
21/04:30am 4.7 0.6 2.2 84 1.0 NE 13 15 7 8 1020.5 1020.5 0.0

Other Formats:

Comma delimited format used in spreadsheet applications
http://www.bom.gov.au/fwo/IDS60801/IDS60801.94677.axf

JavaScript Object Notation format (JSON) in row-major order
http://www.bom.gov.au/fwo/IDS60801/IDS60801.94677.json